Skip Navigation Links
NOAA logo - Click to go to the NOAA homepage
NOAA's National Weather Service
Alaska Aviation Weather Unit
  NWS logo - Click to go to the NWS homepage
Left Navbar Graphic     03 AKDT = 11 GMT

   
NOAA is celebrating 200 years of science, service, and stewardship. Visit the NOAA 200th celebration Web site to learn more.
USA.gov is the U.S. Government's official Web portal to all Federal, state and local government Web resources and services.
Facebook
NWS on Facebook

AAWU Home :: Display TAF Add Bookmark
TAF CYZF 290947Z 2909/3006 06008KT 2SM -FZDZ BR BKN007 OVC012
      TEMPO 2909/2916 P6SM NSW SCT007 OVC012 PROB30 2909/2916
      OVC004
     FM291600 06008KT 3SM -SN BR BKN008 OVC015
      TEMPO 2916/2920 P6SM NSW SCT008 BKN015
     FM292000 07008KT 5SM -SN BR BKN008 OVC040
      TEMPO 2920/3003 P6SM NSW SCT008 OVC040
     FM300300 08008KT 3SM -SN BR OVC006 RMK
      NXT FCST BY 291200Z=

METAR CYZF 290500Z 06010KT 15SM OVC011 M04/M07 A2997 RMK SC8 SLP170= METAR CYZF 290600Z 06008KT 15SM OVC011 M05/M08 A2998 RMK SC8 SLP172= METAR CYZF 290700Z 06009KT 15SM OVC011 M05/M08 A2997 RMK SC8 SLP169= METAR CYZF 290800Z 07009G15KT 15SM OVC013 M06/M09 A2997 RMK SC8 SLP167= METAR CYZF 290900Z 05010KT 15SM OVC011 M06/M09 A2996 RMK SC8 SLP166= CYZF 290934Z 06008KT 8SM -FZDZ OVC009 M07/M09 A2996 RMK SC8 SLP166= METAR CYZF 291000Z 06008KT 6SM -FZDZ -SN OVC009 M07/M09 A2996 RMK SC8 SLP166= CYZF 291028Z 06010KT 8SM OVC009 M07/M09 A2996 RMK SC8 SLP164=
 Alaska TAF Map

NOAA's National Weather Service
Alaska Aviation Weather Unit
6930 Sand Lake Road
Anchorage, AK 99502-1845
Disclaimer
Credits
Glossary
Privacy Policy
About Us
Career Opportunities
Contact AAWU Internet Services Site last modified: April, 17th 2012